sensor_id;sensor_type;location;lat;lon;timestamp;P1;durP1;ratioP1;P2;durP2;ratioP2
49858;SDS011;35756;52.346;13.622;2022-11-15T00:01:06;43.47;;;21.50;;
49858;SDS011;35756;52.346;13.622;2022-11-15T00:03:32;42.45;;;20.52;;
49858;SDS011;35756;52.346;13.622;2022-11-15T00:06:01;45.00;;;21.42;;
49858;SDS011;35756;52.346;13.622;2022-11-15T00:08:29;45.15;;;21.27;;
49858;SDS011;35756;52.346;13.622;2022-11-15T00:10:58;49.38;;;21.05;;
49858;SDS011;35756;52.346;13.622;2022-11-15T00:13:24;43.72;;;20.65;;
49858;SDS011;35756;52.346;13.622;2022-11-15T00:15:49;46.70;;;21.23;;
49858;SDS011;35756;52.346;13.622;2022-11-15T00:18:15;55.47;;;22.23;;
49858;SDS011;35756;52.346;13.622;2022-11-15T00:20:41;51.20;;;23.02;;
49858;SDS011;35756;52.346;13.622;2022-11-15T00:23:06;46.05;;;22.33;;
49858;SDS011;35756;52.346;13.622;2022-11-15T00:25:32;46.67;;;22.08;;
49858;SDS011;35756;52.346;13.622;2022-11-15T00:27:58;51.65;;;23.48;;
49858;SDS011;35756;52.346;13.622;2022-11-15T00:30:23;57.67;;;23.83;;
49858;SDS011;35756;52.346;13.622;2022-11-15T00:32:49;42.90;;;21.23;;
49858;SDS011;35756;52.346;13.622;2022-11-15T00:35:14;49.70;;;22.65;;
49858;SDS011;35756;52.346;13.622;2022-11-15T00:37:39;50.80;;;23.77;;
49858;SDS011;35756;52.346;13.622;2022-11-15T00:40:05;49.67;;;23.13;;
49858;SDS011;35756;52.346;13.622;2022-11-15T00:42:31;46.00;;;21.98;;
49858;SDS011;35756;52.346;13.622;2022-11-15T00:44:56;49.97;;;23.02;;
49858;SDS011;35756;52.346;13.622;2022-11-15T00:47:21;51.53;;;23.48;;
49858;SDS011;35756;52.346;13.622;2022-11-15T00:49:46;57.33;;;23.63;;
49858;SDS011;35756;52.346;13.622;2022-11-15T00:52:12;54.20;;;23.05;;
49858;SDS011;35756;52.346;13.622;2022-11-15T00:54:37;50.08;;;23.38;;
49858;SDS011;35756;52.346;13.622;2022-11-15T00:57:02;48.22;;;21.77;;
49858;SDS011;35756;52.346;13.622;2022-11-15T00:59:28;49.30;;;22.02;;
49858;SDS011;35756;52.346;13.622;2022-11-15T01:01:53;56.63;;;23.30;;
49858;SDS011;35756;52.346;13.622;2022-11-15T01:04:18;55.03;;;23.33;;
49858;SDS011;35756;52.346;13.622;2022-11-15T01:06:43;50.92;;;21.80;;
49858;SDS011;35756;52.346;13.622;2022-11-15T01:09:09;53.42;;;23.55;;
49858;SDS011;35756;52.346;13.622;2022-11-15T01:11:34;49.30;;;22.15;;
49858;SDS011;35756;52.346;13.622;2022-11-15T01:13:59;47.97;;;21.80;;
49858;SDS011;35756;52.346;13.622;2022-11-15T01:16:25;52.08;;;22.48;;
49858;SDS011;35756;52.346;13.622;2022-11-15T01:18:50;47.05;;;20.92;;
49858;SDS011;35756;52.346;13.622;2022-11-15T01:21:17;49.15;;;23.48;;
49858;SDS011;35756;52.346;13.622;2022-11-15T01:23:43;46.35;;;21.90;;
49858;SDS011;35756;52.346;13.622;2022-11-15T01:26:11;47.47;;;21.83;;
49858;SDS011;35756;52.346;13.622;2022-11-15T01:28:37;41.25;;;20.17;;
49858;SDS011;35756;52.346;13.622;2022-11-15T01:31:05;42.67;;;21.55;;
49858;SDS011;35756;52.346;13.622;2022-11-15T01:33:38;46.85;;;21.13;;
49858;SDS011;35756;52.346;13.622;2022-11-15T01:36:07;47.10;;;21.30;;
49858;SDS011;35756;52.346;13.622;2022-11-15T01:38:34;47.25;;;20.48;;
49858;SDS011;35756;52.346;13.622;2022-11-15T01:40:59;47.17;;;22.17;;
49858;SDS011;35756;52.346;13.622;2022-11-15T01:43:32;45.58;;;21.58;;
49858;SDS011;35756;52.346;13.622;2022-11-15T01:46:04;46.28;;;21.25;;
49858;SDS011;35756;52.346;13.622;2022-11-15T01:48:32;50.63;;;21.65;;
49858;SDS011;35756;52.346;13.622;2022-11-15T01:51:02;45.38;;;21.15;;
49858;SDS011;35756;52.346;13.622;2022-11-15T01:53:31;47.20;;;20.20;;
49858;SDS011;35756;52.346;13.622;2022-11-15T01:55:57;49.33;;;22.13;;
49858;SDS011;35756;52.346;13.622;2022-11-15T01:58:22;45.67;;;22.27;;
49858;SDS011;35756;52.346;13.622;2022-11-15T02:00:48;48.85;;;22.27;;
49858;SDS011;35756;52.346;13.622;2022-11-15T02:03:14;52.65;;;22.33;;
49858;SDS011;35756;52.346;13.622;2022-11-15T02:05:39;48.78;;;21.55;;
49858;SDS011;35756;52.346;13.622;2022-11-15T02:08:06;47.53;;;20.77;;
49858;SDS011;35756;52.346;13.622;2022-11-15T02:10:31;47.08;;;22.77;;
49858;SDS011;35756;52.346;13.622;2022-11-15T02:12:57;45.13;;;20.35;;
49858;SDS011;35756;52.346;13.622;2022-11-15T02:15:24;47.75;;;21.42;;
49858;SDS011;35756;52.346;13.622;2022-11-15T02:18:13;48.53;;;21.92;;
49858;SDS011;35756;52.346;13.622;2022-11-15T02:20:45;56.92;;;22.85;;
49858;SDS011;35756;52.346;13.622;2022-11-15T02:23:40;58.58;;;23.77;;
49858;SDS011;35756;52.346;13.622;2022-11-15T02:32:12;55.42;;;23.67;;
49858;SDS011;35756;52.346;13.622;2022-11-15T02:34:56;52.70;;;25.42;;
49858;SDS011;35756;52.346;13.622;2022-11-15T02:43:18;58.38;;;24.42;;
49858;SDS011;35756;52.346;13.622;2022-11-15T02:46:50;65.75;;;25.92;;
49858;SDS011;35756;52.346;13.622;2022-11-15T02:49:22;55.17;;;23.55;;
49858;SDS011;35756;52.346;13.622;2022-11-15T02:51:49;59.70;;;24.63;;
49858;SDS011;35756;52.346;13.622;2022-11-15T02:54:19;57.22;;;24.02;;
49858;SDS011;35756;52.346;13.622;2022-11-15T02:56:47;61.17;;;24.55;;
49858;SDS011;35756;52.346;13.622;2022-11-15T03:04:52;63.03;;;25.48;;
49858;SDS011;35756;52.346;13.622;2022-11-15T03:07:24;66.05;;;26.00;;
49858;SDS011;35756;52.346;13.622;2022-11-15T03:10:07;56.40;;;24.92;;
49858;SDS011;35756;52.346;13.622;2022-11-15T03:15:29;59.70;;;24.23;;
49858;SDS011;35756;52.346;13.622;2022-11-15T03:18:00;54.30;;;22.30;;
49858;SDS011;35756;52.346;13.622;2022-11-15T03:20:27;48.92;;;23.70;;
49858;SDS011;35756;52.346;13.622;2022-11-15T03:22:54;55.00;;;23.38;;
49858;SDS011;35756;52.346;13.622;2022-11-15T03:25:22;49.30;;;21.85;;
49858;SDS011;35756;52.346;13.622;2022-11-15T03:27:50;56.22;;;22.50;;
49858;SDS011;35756;52.346;13.622;2022-11-15T03:30:17;48.60;;;22.25;;
49858;SDS011;35756;52.346;13.622;2022-11-15T03:33:04;50.53;;;21.60;;
49858;SDS011;35756;52.346;13.622;2022-11-15T03:35:29;56.15;;;23.17;;
49858;SDS011;35756;52.346;13.622;2022-11-15T03:38:06;53.05;;;23.25;;
49858;SDS011;35756;52.346;13.622;2022-11-15T03:40:59;53.78;;;23.10;;
49858;SDS011;35756;52.346;13.622;2022-11-15T03:43:30;51.83;;;21.48;;
49858;SDS011;35756;52.346;13.622;2022-11-15T03:46:25;47.60;;;21.48;;
49858;SDS011;35756;52.346;13.622;2022-11-15T03:48:54;56.55;;;23.48;;
49858;SDS011;35756;52.346;13.622;2022-11-15T03:51:24;55.83;;;23.75;;
49858;SDS011;35756;52.346;13.622;2022-11-15T03:53:49;51.90;;;22.83;;
49858;SDS011;35756;52.346;13.622;2022-11-15T03:56:15;51.15;;;22.30;;
49858;SDS011;35756;52.346;13.622;2022-11-15T03:58:40;54.40;;;22.98;;
49858;SDS011;35756;52.346;13.622;2022-11-15T04:01:06;52.17;;;22.17;;
49858;SDS011;35756;52.346;13.622;2022-11-15T04:03:32;50.13;;;22.13;;
49858;SDS011;35756;52.346;13.622;2022-11-15T04:05:57;48.58;;;21.17;;
49858;SDS011;35756;52.346;13.622;2022-11-15T04:08:22;51.47;;;24.30;;
49858;SDS011;35756;52.346;13.622;2022-11-15T04:10:51;53.25;;;22.70;;
49858;SDS011;35756;52.346;13.622;2022-11-15T04:13:16;48.65;;;21.85;;
49858;SDS011;35756;52.346;13.622;2022-11-15T04:15:41;48.92;;;22.25;;
49858;SDS011;35756;52.346;13.622;2022-11-15T04:18:07;52.38;;;22.63;;
49858;SDS011;35756;52.346;13.622;2022-11-15T04:20:32;51.15;;;23.17;;
49858;SDS011;35756;52.346;13.622;2022-11-15T04:23:17;56.42;;;23.33;;
49858;SDS011;35756;52.346;13.622;2022-11-15T04:26:03;55.55;;;23.02;;
49858;SDS011;35756;52.346;13.622;2022-11-15T04:28:33;58.83;;;22.35;;
49858;SDS011;35756;52.346;13.622;2022-11-15T04:30:58;55.78;;;24.38;;
49858;SDS011;35756;52.346;13.622;2022-11-15T04:33:23;48.10;;;22.08;;
49858;SDS011;35756;52.346;13.622;2022-11-15T04:35:48;49.10;;;23.48;;
49858;SDS011;35756;52.346;13.622;2022-11-15T04:38:32;59.85;;;23.98;;
49858;SDS011;35756;52.346;13.622;2022-11-15T04:40:58;59.50;;;24.05;;
49858;SDS011;35756;52.346;13.622;2022-11-15T04:43:23;57.65;;;24.67;;
49858;SDS011;35756;52.346;13.622;2022-11-15T04:45:49;61.03;;;25.10;;
49858;SDS011;35756;52.346;13.622;2022-11-15T04:48:14;56.20;;;24.92;;
49858;SDS011;35756;52.346;13.622;2022-11-15T04:50:39;55.58;;;24.75;;
49858;SDS011;35756;52.346;13.622;2022-11-15T04:53:04;60.65;;;26.17;;
49858;SDS011;35756;52.346;13.622;2022-11-15T04:55:30;63.60;;;25.40;;
49858;SDS011;35756;52.346;13.622;2022-11-15T04:57:59;64.70;;;25.63;;
49858;SDS011;35756;52.346;13.622;2022-11-15T05:00:26;67.78;;;26.55;;
49858;SDS011;35756;52.346;13.622;2022-11-15T05:02:51;68.68;;;26.63;;
49858;SDS011;35756;52.346;13.622;2022-11-15T05:05:35;70.38;;;25.90;;
49858;SDS011;35756;52.346;13.622;2022-11-15T05:08:01;61.65;;;23.73;;
49858;SDS011;35756;52.346;13.622;2022-11-15T05:10:26;62.00;;;24.42;;
49858;SDS011;35756;52.346;13.622;2022-11-15T05:12:51;64.10;;;25.92;;
49858;SDS011;35756;52.346;13.622;2022-11-15T05:15:17;56.75;;;24.42;;
49858;SDS011;35756;52.346;13.622;2022-11-15T05:17:42;59.67;;;25.30;;
49858;SDS011;35756;52.346;13.622;2022-11-15T05:20:07;60.95;;;23.90;;
49858;SDS011;35756;52.346;13.622;2022-11-15T05:22:33;65.10;;;25.15;;
49858;SDS011;35756;52.346;13.622;2022-11-15T05:24:58;63.60;;;26.17;;
49858;SDS011;35756;52.346;13.622;2022-11-15T05:27:24;62.08;;;25.23;;
49858;SDS011;35756;52.346;13.622;2022-11-15T05:29:49;61.60;;;24.90;;
49858;SDS011;35756;52.346;13.622;2022-11-15T05:32:14;49.55;;;23.27;;
49858;SDS011;35756;52.346;13.622;2022-11-15T05:34:41;55.92;;;24.33;;
49858;SDS011;35756;52.346;13.622;2022-11-15T05:37:06;56.75;;;23.15;;
49858;SDS011;35756;52.346;13.622;2022-11-15T05:39:32;46.92;;;22.75;;
49858;SDS011;35756;52.346;13.622;2022-11-15T05:42:00;50.83;;;22.13;;
49858;SDS011;35756;52.346;13.622;2022-11-15T05:44:29;51.30;;;22.35;;
49858;SDS011;35756;52.346;13.622;2022-11-15T05:46:55;53.75;;;21.88;;
49858;SDS011;35756;52.346;13.622;2022-11-15T05:49:22;48.78;;;22.73;;
49858;SDS011;35756;52.346;13.622;2022-11-15T05:51:50;52.33;;;23.40;;
49858;SDS011;35756;52.346;13.622;2022-11-15T05:54:16;49.55;;;22.67;;
49858;SDS011;35756;52.346;13.622;2022-11-15T05:56:42;48.88;;;21.38;;
49858;SDS011;35756;52.346;13.622;2022-11-15T05:59:08;54.78;;;22.75;;
49858;SDS011;35756;52.346;13.622;2022-11-15T06:01:34;59.55;;;25.58;;
49858;SDS011;35756;52.346;13.622;2022-11-15T06:03:59;60.65;;;23.92;;
49858;SDS011;35756;52.346;13.622;2022-11-15T06:06:26;56.63;;;24.88;;
49858;SDS011;35756;52.346;13.622;2022-11-15T06:08:52;57.20;;;23.92;;
49858;SDS011;35756;52.346;13.622;2022-11-15T06:11:17;51.33;;;23.48;;
49858;SDS011;35756;52.346;13.622;2022-11-15T06:13:43;61.67;;;24.40;;
49858;SDS011;35756;52.346;13.622;2022-11-15T06:16:08;55.08;;;22.73;;
49858;SDS011;35756;52.346;13.622;2022-11-15T06:18:34;56.38;;;24.17;;
49858;SDS011;35756;52.346;13.622;2022-11-15T06:20:59;50.47;;;22.60;;
49858;SDS011;35756;52.346;13.622;2022-11-15T06:23:25;51.03;;;23.23;;
49858;SDS011;35756;52.346;13.622;2022-11-15T06:25:50;59.45;;;24.20;;
49858;SDS011;35756;52.346;13.622;2022-11-15T06:28:16;55.88;;;23.42;;
49858;SDS011;35756;52.346;13.622;2022-11-15T06:30:41;63.13;;;24.27;;
49858;SDS011;35756;52.346;13.622;2022-11-15T06:33:06;52.28;;;21.88;;
49858;SDS011;35756;52.346;13.622;2022-11-15T06:35:33;50.35;;;22.10;;
49858;SDS011;35756;52.346;13.622;2022-11-15T06:38:07;56.13;;;23.42;;
49858;SDS011;35756;52.346;13.622;2022-11-15T06:40:34;51.30;;;21.85;;
49858;SDS011;35756;52.346;13.622;2022-11-15T06:43:00;55.95;;;23.10;;
49858;SDS011;35756;52.346;13.622;2022-11-15T06:45:26;50.70;;;21.95;;
49858;SDS011;35756;52.346;13.622;2022-11-15T06:47:51;57.40;;;24.17;;
49858;SDS011;35756;52.346;13.622;2022-11-15T06:50:16;49.83;;;23.67;;
49858;SDS011;35756;52.346;13.622;2022-11-15T06:52:42;54.72;;;23.13;;
49858;SDS011;35756;52.346;13.622;2022-11-15T06:55:07;54.15;;;23.25;;
49858;SDS011;35756;52.346;13.622;2022-11-15T06:57:33;58.25;;;23.13;;
49858;SDS011;35756;52.346;13.622;2022-11-15T06:59:58;51.42;;;22.90;;
49858;SDS011;35756;52.346;13.622;2022-11-15T07:02:23;54.00;;;23.25;;
49858;SDS011;35756;52.346;13.622;2022-11-15T07:04:48;49.10;;;21.95;;
49858;SDS011;35756;52.346;13.622;2022-11-15T07:07:14;47.60;;;22.33;;
49858;SDS011;35756;52.346;13.622;2022-11-15T07:09:39;57.55;;;24.95;;
49858;SDS011;35756;52.346;13.622;2022-11-15T07:12:05;61.67;;;25.95;;
49858;SDS011;35756;52.346;13.622;2022-11-15T07:14:30;70.85;;;25.75;;
49858;SDS011;35756;52.346;13.622;2022-11-15T07:16:55;63.33;;;25.45;;
49858;SDS011;35756;52.346;13.622;2022-11-15T07:19:20;60.50;;;25.73;;
49858;SDS011;35756;52.346;13.622;2022-11-15T07:21:46;60.75;;;25.27;;
49858;SDS011;35756;52.346;13.622;2022-11-15T07:24:11;55.70;;;24.48;;
49858;SDS011;35756;52.346;13.622;2022-11-15T07:26:36;59.47;;;22.60;;
49858;SDS011;35756;52.346;13.622;2022-11-15T07:29:02;52.65;;;23.00;;
49858;SDS011;35756;52.346;13.622;2022-11-15T07:31:27;55.80;;;23.02;;
49858;SDS011;35756;52.346;13.622;2022-11-15T07:33:52;53.92;;;22.38;;
49858;SDS011;35756;52.346;13.622;2022-11-15T07:36:18;58.35;;;24.55;;
49858;SDS011;35756;52.346;13.622;2022-11-15T07:38:43;56.35;;;21.42;;
49858;SDS011;35756;52.346;13.622;2022-11-15T07:41:08;52.83;;;22.75;;
49858;SDS011;35756;52.346;13.622;2022-11-15T07:43:34;55.55;;;22.77;;
49858;SDS011;35756;52.346;13.622;2022-11-15T07:46:04;55.08;;;23.50;;
49858;SDS011;35756;52.346;13.622;2022-11-15T07:48:30;60.33;;;25.52;;
49858;SDS011;35756;52.346;13.622;2022-11-15T07:50:55;63.30;;;25.23;;
49858;SDS011;35756;52.346;13.622;2022-11-15T07:53:21;53.42;;;25.08;;
49858;SDS011;35756;52.346;13.622;2022-11-15T07:55:46;64.70;;;26.08;;
49858;SDS011;35756;52.346;13.622;2022-11-15T07:58:11;60.90;;;26.42;;
49858;SDS011;35756;52.346;13.622;2022-11-15T08:00:37;64.22;;;26.55;;
49858;SDS011;35756;52.346;13.622;2022-11-15T08:03:06;62.20;;;27.63;;
49858;SDS011;35756;52.346;13.622;2022-11-15T08:05:33;64.80;;;27.17;;
49858;SDS011;35756;52.346;13.622;2022-11-15T08:07:58;72.38;;;30.38;;
49858;SDS011;35756;52.346;13.622;2022-11-15T08:10:24;72.65;;;29.55;;
49858;SDS011;35756;52.346;13.622;2022-11-15T08:13:00;67.28;;;29.00;;
49858;SDS011;35756;52.346;13.622;2022-11-15T08:15:29;85.18;;;32.13;;
49858;SDS011;35756;52.346;13.622;2022-11-15T08:17:55;75.30;;;31.80;;
49858;SDS011;35756;52.346;13.622;2022-11-15T08:20:21;74.47;;;30.67;;
49858;SDS011;35756;52.346;13.622;2022-11-15T08:22:46;74.03;;;29.33;;
49858;SDS011;35756;52.346;13.622;2022-11-15T08:25:12;77.13;;;29.65;;
49858;SDS011;35756;52.346;13.622;2022-11-15T08:27:37;68.93;;;28.35;;
49858;SDS011;35756;52.346;13.622;2022-11-15T08:30:03;69.70;;;29.77;;
49858;SDS011;35756;52.346;13.622;2022-11-15T08:32:29;75.25;;;29.50;;
49858;SDS011;35756;52.346;13.622;2022-11-15T08:34:55;68.60;;;28.90;;
49858;SDS011;35756;52.346;13.622;2022-11-15T08:37:21;74.10;;;30.63;;
49858;SDS011;35756;52.346;13.622;2022-11-15T08:39:46;69.15;;;30.83;;
49858;SDS011;35756;52.346;13.622;2022-11-15T08:42:11;65.47;;;27.15;;
49858;SDS011;35756;52.346;13.622;2022-11-15T08:44:37;66.68;;;28.80;;
49858;SDS011;35756;52.346;13.622;2022-11-15T08:47:03;63.72;;;28.35;;
49858;SDS011;35756;52.346;13.622;2022-11-15T08:49:28;65.05;;;29.20;;
49858;SDS011;35756;52.346;13.622;2022-11-15T08:51:53;63.42;;;28.55;;
49858;SDS011;35756;52.346;13.622;2022-11-15T08:54:19;58.83;;;28.15;;
49858;SDS011;35756;52.346;13.622;2022-11-15T08:56:44;51.22;;;26.48;;
49858;SDS011;35756;52.346;13.622;2022-11-15T08:59:09;48.13;;;25.15;;
49858;SDS011;35756;52.346;13.622;2022-11-15T09:01:35;38.90;;;21.25;;
49858;SDS011;35756;52.346;13.622;2022-11-15T09:04:00;39.20;;;20.88;;
49858;SDS011;35756;52.346;13.622;2022-11-15T09:06:25;36.20;;;19.23;;
49858;SDS011;35756;52.346;13.622;2022-11-15T09:08:50;38.70;;;21.55;;
49858;SDS011;35756;52.346;13.622;2022-11-15T09:11:16;32.50;;;19.75;;
49858;SDS011;35756;52.346;13.622;2022-11-15T09:13:44;33.95;;;21.15;;
49858;SDS011;35756;52.346;13.622;2022-11-15T09:16:13;35.83;;;21.15;;
49858;SDS011;35756;52.346;13.622;2022-11-15T09:18:40;36.08;;;21.33;;
49858;SDS011;35756;52.346;13.622;2022-11-15T09:21:05;35.63;;;20.65;;
49858;SDS011;35756;52.346;13.622;2022-11-15T09:23:30;32.28;;;21.15;;
49858;SDS011;35756;52.346;13.622;2022-11-15T09:25:59;38.03;;;21.13;;
49858;SDS011;35756;52.346;13.622;2022-11-15T09:28:26;37.05;;;21.05;;
49858;SDS011;35756;52.346;13.622;2022-11-15T09:30:55;35.53;;;20.48;;
49858;SDS011;35756;52.346;13.622;2022-11-15T09:33:21;32.53;;;19.55;;
49858;SDS011;35756;52.346;13.622;2022-11-15T09:35:46;37.95;;;21.35;;
49858;SDS011;35756;52.346;13.622;2022-11-15T09:38:11;35.50;;;20.38;;
49858;SDS011;35756;52.346;13.622;2022-11-15T09:40:37;38.72;;;19.65;;
49858;SDS011;35756;52.346;13.622;2022-11-15T09:43:23;35.85;;;19.88;;
49858;SDS011;35756;52.346;13.622;2022-11-15T09:45:55;35.22;;;19.50;;
49858;SDS011;35756;52.346;13.622;2022-11-15T09:48:48;31.88;;;18.50;;
49858;SDS011;35756;52.346;13.622;2022-11-15T09:51:23;35.63;;;19.55;;
49858;SDS011;35756;52.346;13.622;2022-11-15T09:56:46;33.50;;;18.02;;
49858;SDS011;35756;52.346;13.622;2022-11-15T09:59:33;36.42;;;20.10;;
49858;SDS011;35756;52.346;13.622;2022-11-15T10:02:23;33.05;;;19.75;;
49858;SDS011;35756;52.346;13.622;2022-11-15T10:04:48;33.67;;;19.13;;
49858;SDS011;35756;52.346;13.622;2022-11-15T10:07:35;34.72;;;19.42;;
49858;SDS011;35756;52.346;13.622;2022-11-15T10:10:14;33.30;;;17.42;;
49858;SDS011;35756;52.346;13.622;2022-11-15T10:12:44;33.65;;;18.17;;
49858;SDS011;35756;52.346;13.622;2022-11-15T10:15:12;31.40;;;17.55;;
49858;SDS011;35756;52.346;13.622;2022-11-15T10:18:02;25.38;;;15.38;;
49858;SDS011;35756;52.346;13.622;2022-11-15T10:20:34;33.10;;;19.50;;
49858;SDS011;35756;52.346;13.622;2022-11-15T10:23:10;26.23;;;15.73;;
49858;SDS011;35756;52.346;13.622;2022-11-15T10:25:36;26.90;;;15.85;;
49858;SDS011;35756;52.346;13.622;2022-11-15T10:28:14;27.50;;;17.15;;
49858;SDS011;35756;52.346;13.622;2022-11-15T10:30:48;27.40;;;16.40;;
49858;SDS011;35756;52.346;13.622;2022-11-15T10:33:17;26.52;;;16.10;;
49858;SDS011;35756;52.346;13.622;2022-11-15T10:35:48;26.17;;;16.33;;
49858;SDS011;35756;52.346;13.622;2022-11-15T10:38:13;27.65;;;17.60;;
49858;SDS011;35756;52.346;13.622;2022-11-15T10:40:39;29.90;;;19.35;;
49858;SDS011;35756;52.346;13.622;2022-11-15T10:43:16;27.80;;;19.27;;
49858;SDS011;35756;52.346;13.622;2022-11-15T10:45:42;28.02;;;19.85;;
49858;SDS011;35756;52.346;13.622;2022-11-15T10:50:36;34.13;;;22.80;;
49858;SDS011;35756;52.346;13.622;2022-11-15T10:53:01;27.52;;;19.20;;
49858;SDS011;35756;52.346;13.622;2022-11-15T10:55:28;27.92;;;20.98;;
49858;SDS011;35756;52.346;13.622;2022-11-15T10:57:56;29.90;;;19.15;;
49858;SDS011;35756;52.346;13.622;2022-11-15T11:00:44;29.02;;;19.02;;
49858;SDS011;35756;52.346;13.622;2022-11-15T11:03:27;31.67;;;25.63;;
49858;SDS011;35756;52.346;13.622;2022-11-15T11:06:08;32.72;;;22.92;;
49858;SDS011;35756;52.346;13.622;2022-11-15T11:08:52;34.42;;;30.42;;
49858;SDS011;35756;52.346;13.622;2022-11-15T11:11:21;34.58;;;26.98;;
49858;SDS011;35756;52.346;13.622;2022-11-15T11:13:47;32.22;;;25.20;;
49858;SDS011;35756;52.346;13.622;2022-11-15T11:21:36;75.75;;;70.60;;
49858;SDS011;35756;52.346;13.622;2022-11-15T11:30:03;44.17;;;39.92;;
49858;SDS011;35756;52.346;13.622;2022-11-15T11:35:28;145.95;;;138.30;;
49858;SDS011;35756;52.346;13.622;2022-11-15T11:43:49;130.88;;;123.82;;
49858;SDS011;35756;52.346;13.622;2022-11-15T11:46:31;201.93;;;191.88;;
49858;SDS011;35756;52.346;13.622;2022-11-15T11:49:25;192.95;;;182.85;;
49858;SDS011;35756;52.346;13.622;2022-11-15T11:51:56;262.60;;;249.68;;
49858;SDS011;35756;52.346;13.622;2022-11-15T11:57:23;397.67;;;378.52;;
49858;SDS011;35756;52.346;13.622;2022-11-15T12:02:37;494.90;;;470.70;;
49858;SDS011;35756;52.346;13.622;2022-11-15T12:05:16;449.33;;;427.02;;
49858;SDS011;35756;52.346;13.622;2022-11-15T12:07:44;318.17;;;302.67;;
49858;SDS011;35756;52.346;13.622;2022-11-15T12:13:24;517.83;;;492.15;;
49858;SDS011;35756;52.346;13.622;2022-11-15T12:15:38;563.22;;;533.22;;
49858;SDS011;35756;52.346;13.622;2022-11-15T12:18:07;595.78;;;563.85;;
49858;SDS011;35756;52.346;13.622;2022-11-15T12:20:37;497.55;;;473.23;;
49858;SDS011;35756;52.346;13.622;2022-11-15T12:23:07;540.75;;;512.35;;
49858;SDS011;35756;52.346;13.622;2022-11-15T12:25:51;511.15;;;485.30;;
49858;SDS011;35756;52.346;13.622;2022-11-15T12:31:11;329.60;;;313.33;;
49858;SDS011;35756;52.346;13.622;2022-11-15T12:33:42;548.83;;;521.35;;
49858;SDS011;35756;52.346;13.622;2022-11-15T12:36:29;550.28;;;521.65;;
49858;SDS011;35756;52.346;13.622;2022-11-15T12:41:25;621.63;;;588.05;;
49858;SDS011;35756;52.346;13.622;2022-11-15T12:43:54;813.65;;;763.55;;
49858;SDS011;35756;52.346;13.622;2022-11-15T12:48:58;706.70;;;666.33;;
49858;SDS011;35756;52.346;13.622;2022-11-15T12:52:02;626.97;;;592.85;;
49858;SDS011;35756;52.346;13.622;2022-11-15T13:02:43;544.95;;;516.75;;
49858;SDS011;35756;52.346;13.622;2022-11-15T13:17:37;592.75;;;560.30;;
49858;SDS011;35756;52.346;13.622;2022-11-15T13:22:43;406.93;;;387.73;;
49858;SDS011;35756;52.346;13.622;2022-11-15T13:25:17;485.05;;;461.33;;
49858;SDS011;35756;52.346;13.622;2022-11-15T13:27:46;439.95;;;418.85;;
49858;SDS011;35756;52.346;13.622;2022-11-15T13:30:19;383.40;;;364.60;;
49858;SDS011;35756;52.346;13.622;2022-11-15T13:32:46;344.00;;;327.10;;
49858;SDS011;35756;52.346;13.622;2022-11-15T13:35:27;345.85;;;329.60;;
49858;SDS011;35756;52.346;13.622;2022-11-15T13:37:54;407.77;;;388.85;;
49858;SDS011;35756;52.346;13.622;2022-11-15T13:40:25;313.80;;;298.73;;
49858;SDS011;35756;52.346;13.622;2022-11-15T13:42:52;299.27;;;284.92;;
49858;SDS011;35756;52.346;13.622;2022-11-15T13:45:18;297.63;;;283.80;;
49858;SDS011;35756;52.346;13.622;2022-11-15T13:47:44;273.23;;;259.88;;
49858;SDS011;35756;52.346;13.622;2022-11-15T13:50:10;216.80;;;206.88;;
49858;SDS011;35756;52.346;13.622;2022-11-15T13:52:37;208.88;;;199.18;;
49858;SDS011;35756;52.346;13.622;2022-11-15T13:55:26;152.65;;;145.05;;
49858;SDS011;35756;52.346;13.622;2022-11-15T14:03:11;157.90;;;149.77;;
49858;SDS011;35756;52.346;13.622;2022-11-15T14:05:40;129.15;;;122.30;;
49858;SDS011;35756;52.346;13.622;2022-11-15T14:08:40;112.88;;;107.05;;
49858;SDS011;35756;52.346;13.622;2022-11-15T14:11:17;124.90;;;118.50;;
49858;SDS011;35756;52.346;13.622;2022-11-15T14:16:34;71.97;;;67.72;;
49858;SDS011;35756;52.346;13.622;2022-11-15T14:19:01;57.83;;;54.15;;
49858;SDS011;35756;52.346;13.622;2022-11-15T14:21:27;50.80;;;47.08;;
49858;SDS011;35756;52.346;13.622;2022-11-15T14:23:53;35.08;;;32.45;;
49858;SDS011;35756;52.346;13.622;2022-11-15T14:26:31;35.03;;;32.42;;
49858;SDS011;35756;52.346;13.622;2022-11-15T14:29:21;33.58;;;30.80;;
49858;SDS011;35756;52.346;13.622;2022-11-15T14:31:53;28.48;;;26.13;;
49858;SDS011;35756;52.346;13.622;2022-11-15T14:34:19;24.63;;;22.58;;
49858;SDS011;35756;52.346;13.622;2022-11-15T14:36:47;21.63;;;19.17;;
49858;SDS011;35756;52.346;13.622;2022-11-15T14:39:12;17.42;;;15.70;;
49858;SDS011;35756;52.346;13.622;2022-11-15T14:41:37;21.13;;;18.23;;
49858;SDS011;35756;52.346;13.622;2022-11-15T14:44:03;18.48;;;16.52;;
49858;SDS011;35756;52.346;13.622;2022-11-15T14:46:29;18.33;;;16.52;;
49858;SDS011;35756;52.346;13.622;2022-11-15T14:48:54;18.55;;;15.68;;
49858;SDS011;35756;52.346;13.622;2022-11-15T14:51:20;19.55;;;15.20;;
49858;SDS011;35756;52.346;13.622;2022-11-15T14:53:45;18.63;;;15.70;;
49858;SDS011;35756;52.346;13.622;2022-11-15T14:56:11;17.98;;;15.45;;
49858;SDS011;35756;52.346;13.622;2022-11-15T14:58:37;15.73;;;12.00;;
49858;SDS011;35756;52.346;13.622;2022-11-15T15:01:05;18.27;;;14.00;;
49858;SDS011;35756;52.346;13.622;2022-11-15T15:03:37;15.13;;;13.18;;
49858;SDS011;35756;52.346;13.622;2022-11-15T15:06:02;16.52;;;10.85;;
49858;SDS011;35756;52.346;13.622;2022-11-15T15:08:28;15.05;;;11.90;;
49858;SDS011;35756;52.346;13.622;2022-11-15T15:10:53;17.70;;;14.80;;
49858;SDS011;35756;52.346;13.622;2022-11-15T15:13:20;18.55;;;14.32;;
49858;SDS011;35756;52.346;13.622;2022-11-15T15:15:47;16.48;;;10.75;;
49858;SDS011;35756;52.346;13.622;2022-11-15T15:18:12;16.02;;;12.10;;
49858;SDS011;35756;52.346;13.622;2022-11-15T15:20:38;19.08;;;12.70;;
49858;SDS011;35756;52.346;13.622;2022-11-15T15:23:04;18.10;;;11.98;;
49858;SDS011;35756;52.346;13.622;2022-11-15T15:25:31;16.70;;;11.48;;
49858;SDS011;35756;52.346;13.622;2022-11-15T15:27:58;15.35;;;10.05;;
49858;SDS011;35756;52.346;13.622;2022-11-15T15:30:24;16.30;;;10.55;;
49858;SDS011;35756;52.346;13.622;2022-11-15T15:32:50;16.67;;;11.02;;
49858;SDS011;35756;52.346;13.622;2022-11-15T15:35:15;15.40;;;10.13;;
49858;SDS011;35756;52.346;13.622;2022-11-15T15:37:41;15.02;;;10.27;;
49858;SDS011;35756;52.346;13.622;2022-11-15T15:40:13;16.60;;;11.20;;
49858;SDS011;35756;52.346;13.622;2022-11-15T15:42:40;18.40;;;10.38;;
49858;SDS011;35756;52.346;13.622;2022-11-15T15:45:06;16.73;;;10.38;;
49858;SDS011;35756;52.346;13.622;2022-11-15T15:47:32;15.90;;;9.35;;
49858;SDS011;35756;52.346;13.622;2022-11-15T15:49:57;19.23;;;10.95;;